createdAt,value
2017-10-02T00:01:16.086Z,9.00
2017-10-02T00:03:44.406Z,8.17
2017-10-02T00:06:12.703Z,9.23
2017-10-02T00:08:41.054Z,8.40
2017-10-02T00:11:09.375Z,8.50
2017-10-02T00:13:37.798Z,7.40
2017-10-02T00:16:06.098Z,7.77
2017-10-02T00:18:34.397Z,8.00
2017-10-02T00:21:02.725Z,5.87
2017-10-02T00:23:31.030Z,6.20
2017-10-02T00:25:59.343Z,6.50
2017-10-02T00:28:27.620Z,6.60
2017-10-02T00:30:55.942Z,6.40
2017-10-02T00:33:24.218Z,8.07
2017-10-02T00:35:52.522Z,6.47
2017-10-02T00:38:20.828Z,6.70
2017-10-02T00:40:49.246Z,8.10
2017-10-02T00:43:17.530Z,7.50
2017-10-02T00:45:45.856Z,7.10
2017-10-02T00:48:14.954Z,7.40
2017-10-02T00:50:43.242Z,5.53
2017-10-02T00:53:12.314Z,6.27
2017-10-02T00:55:40.641Z,6.40
2017-10-02T00:58:08.971Z,7.03
2017-10-02T01:00:37.270Z,6.70
2017-10-02T01:03:05.583Z,5.33
2017-10-02T01:05:33.877Z,5.70
2017-10-02T01:08:02.500Z,6.93
2017-10-02T01:10:31.558Z,6.70
2017-10-02T01:12:59.866Z,6.47
2017-10-02T01:15:28.181Z,7.33
2017-10-02T01:17:56.469Z,6.20
2017-10-02T01:20:24.806Z,6.33
2017-10-02T01:22:53.109Z,7.17
2017-10-02T01:25:21.433Z,8.43
2017-10-02T01:27:49.733Z,7.77
2017-10-02T01:30:18.417Z,7.97
2017-10-02T01:32:46.748Z,6.80
2017-10-02T01:35:15.858Z,7.30
2017-10-02T01:37:44.970Z,7.67
2017-10-02T01:40:13.298Z,7.00
2017-10-02T01:42:41.615Z,6.57
2017-10-02T01:45:10.707Z,4.93
2017-10-02T01:47:39.817Z,6.30
2017-10-02T01:50:08.134Z,5.80
2017-10-02T01:52:36.468Z,6.57
2017-10-02T01:55:05.551Z,6.13
2017-10-02T01:57:34.823Z,6.27
2017-10-02T02:00:03.135Z,6.23
2017-10-02T02:02:32.223Z,6.93
2017-10-02T02:05:01.335Z,7.40
2017-10-02T02:07:29.650Z,6.40
2017-10-02T02:09:58.014Z,6.90
2017-10-02T02:12:26.319Z,7.10
2017-10-02T02:14:54.670Z,6.40
2017-10-02T02:17:22.978Z,7.40
2017-10-02T02:19:51.338Z,15.53
2017-10-02T02:22:19.666Z,8.70
2017-10-02T02:24:49.068Z,8.07
2017-10-02T02:27:17.406Z,10.43
2017-10-02T02:29:45.709Z,7.57
2017-10-02T02:32:14.823Z,8.93
2017-10-02T02:34:43.162Z,7.70
2017-10-02T02:37:11.528Z,6.87
2017-10-02T02:39:39.854Z,5.73
2017-10-02T02:42:08.205Z,6.50
2017-10-02T02:44:36.514Z,6.90
2017-10-02T02:47:04.856Z,6.87
2017-10-02T02:49:33.950Z,6.50
2017-10-02T02:52:02.383Z,5.97
2017-10-02T02:54:30.674Z,6.57
2017-10-02T02:56:58.990Z,5.80
2017-10-02T02:59:28.116Z,5.83
2017-10-02T03:01:56.442Z,6.80
2017-10-02T03:04:24.786Z,6.13
2017-10-02T03:06:53.091Z,7.23
2017-10-02T03:09:21.394Z,6.10
2017-10-02T03:11:49.704Z,6.43
2017-10-02T03:14:18.051Z,5.20
2017-10-02T03:16:47.146Z,6.67
2017-10-02T03:19:16.251Z,8.00
2017-10-02T03:21:44.583Z,6.33
2017-10-02T03:24:13.322Z,5.50
2017-10-02T03:26:41.643Z,6.00
2017-10-02T03:29:09.955Z,6.00
2017-10-02T03:31:38.278Z,5.30
2017-10-02T03:34:06.755Z,7.10
2017-10-02T03:36:35.103Z,5.33
2017-10-02T03:39:03.426Z,5.80
2017-10-02T03:41:31.777Z,6.20
2017-10-02T03:44:00.098Z,5.20
2017-10-02T03:46:28.461Z,7.63
2017-10-02T03:48:56.758Z,4.83
2017-10-02T03:51:25.983Z,6.73
2017-10-02T03:53:55.076Z,5.77
2017-10-02T03:56:24.176Z,5.90
2017-10-02T03:58:52.483Z,5.37
2017-10-02T04:01:20.799Z,4.90
2017-10-02T04:03:49.146Z,5.13
2017-10-02T04:06:17.463Z,4.60
2017-10-02T04:08:45.866Z,5.00
2017-10-02T04:11:14.197Z,5.80
2017-10-02T04:13:42.534Z,5.00
2017-10-02T04:16:10.905Z,5.27
2017-10-02T04:18:39.487Z,6.17
2017-10-02T04:21:07.810Z,5.57
2017-10-02T04:23:36.148Z,5.27
2017-10-02T04:26:04.490Z,5.40
2017-10-02T04:28:32.771Z,5.30
2017-10-02T04:31:01.095Z,5.10
2017-10-02T04:33:29.419Z,4.83
2017-10-02T04:35:58.534Z,4.80
2017-10-02T04:38:26.850Z,5.00
2017-10-02T04:40:55.195Z,4.73
2017-10-02T04:43:24.260Z,5.57
2017-10-02T04:45:52.750Z,6.00
2017-10-02T04:48:21.837Z,7.10
2017-10-02T04:50:50.145Z,4.87
2017-10-02T04:53:18.492Z,3.93
2017-10-02T04:55:47.584Z,4.30
2017-10-02T04:58:15.902Z,4.73
2017-10-02T05:00:44.956Z,5.17
2017-10-02T05:03:13.287Z,6.40
2017-10-02T05:05:41.586Z,3.20
2017-10-02T05:08:09.938Z,4.63
2017-10-02T05:10:38.249Z,4.57
2017-10-02T05:13:06.769Z,5.47
2017-10-02T05:15:35.127Z,4.77
2017-10-02T05:18:03.425Z,4.73
2017-10-02T05:20:32.510Z,4.40
2017-10-02T05:23:00.856Z,4.57
2017-10-02T05:25:29.198Z,4.43
2017-10-02T05:27:57.507Z,4.53
2017-10-02T05:30:25.850Z,5.00
2017-10-02T05:32:54.185Z,4.67
2017-10-02T05:35:23.294Z,4.77
2017-10-02T05:37:51.610Z,4.27
2017-10-02T05:40:19.906Z,6.30
2017-10-02T05:42:48.553Z,6.93
2017-10-02T05:45:16.869Z,5.63
2017-10-02T05:47:45.220Z,6.17
2017-10-02T05:50:13.527Z,5.20
2017-10-02T05:52:41.858Z,5.70
2017-10-02T05:55:10.187Z,4.93
2017-10-02T05:57:39.271Z,6.87
2017-10-02T06:00:07.618Z,5.40
2017-10-02T06:02:35.927Z,6.10
2017-10-02T06:05:05.035Z,6.80
2017-10-02T06:07:33.332Z,5.10
2017-10-02T06:10:01.649Z,4.00
2017-10-02T06:12:29.951Z,5.50
2017-10-02T06:14:59.074Z,6.23
2017-10-02T06:17:28.129Z,4.23
2017-10-02T06:19:56.473Z,5.80
2017-10-02T06:22:24.834Z,6.43
2017-10-02T06:24:53.410Z,5.77
2017-10-02T06:27:21.739Z,5.53
2017-10-02T06:29:50.059Z,4.90
2017-10-02T06:32:19.178Z,5.23
2017-10-02T06:34:48.236Z,6.83
2017-10-02T06:37:17.360Z,5.90
2017-10-02T06:39:45.733Z,6.53
2017-10-02T06:42:14.815Z,7.13
2017-10-02T06:44:43.126Z,5.90
2017-10-02T06:47:11.786Z,6.10
2017-10-02T06:49:40.843Z,4.80
2017-10-02T06:52:09.989Z,6.77
2017-10-02T06:54:38.325Z,6.80
2017-10-02T06:57:06.643Z,5.67
2017-10-02T06:59:34.976Z,4.90
2017-10-02T07:02:04.059Z,5.10
2017-10-02T07:04:32.438Z,6.03
2017-10-02T07:07:00.738Z,5.60
2017-10-02T07:09:29.225Z,5.70
2017-10-02T07:11:58.303Z,6.03
2017-10-02T07:14:27.427Z,8.00
2017-10-02T07:16:55.804Z,6.20
2017-10-02T07:19:24.285Z,5.83
2017-10-02T07:21:52.629Z,6.30
2017-10-02T07:24:21.430Z,6.37
2017-10-02T07:26:50.543Z,6.90
2017-10-02T07:29:18.872Z,6.70
2017-10-02T07:31:47.227Z,7.97
2017-10-02T07:34:15.543Z,5.80
2017-10-02T07:36:44.875Z,6.37
2017-10-02T07:39:13.194Z,6.83
2017-10-02T07:41:41.498Z,6.40
2017-10-02T07:44:10.620Z,7.00
2017-10-02T07:46:39.697Z,6.30
2017-10-02T07:49:08.015Z,6.67
2017-10-02T07:51:36.342Z,6.80
2017-10-02T07:54:04.790Z,5.80
2017-10-02T07:56:33.118Z,8.00
2017-10-02T07:59:02.196Z,8.30
2017-10-02T08:01:31.323Z,7.00
2017-10-02T08:03:59.622Z,7.00
2017-10-02T08:06:27.957Z,7.53
2017-10-02T08:08:57.047Z,7.97
2017-10-02T08:11:26.157Z,8.67
2017-10-02T08:13:54.483Z,8.07
2017-10-02T08:16:22.823Z,7.73
2017-10-02T08:18:51.188Z,7.57
2017-10-02T08:21:19.613Z,7.03
2017-10-02T08:23:47.910Z,6.40
2017-10-02T08:26:17.145Z,6.33
2017-10-02T08:28:46.235Z,7.80
2017-10-02T08:31:15.316Z,8.27
2017-10-02T08:33:43.770Z,8.80
2017-10-02T08:36:12.096Z,7.20
2017-10-02T08:38:41.202Z,7.40
2017-10-02T08:41:09.524Z,8.07
2017-10-02T08:43:37.839Z,5.90
2017-10-02T08:46:06.137Z,5.70
2017-10-02T08:48:34.484Z,6.90
2017-10-02T08:51:02.828Z,6.67
2017-10-02T08:53:31.166Z,7.97
2017-10-02T08:56:00.222Z,8.83
2017-10-02T08:58:28.542Z,7.10
2017-10-02T09:00:56.833Z,7.23
2017-10-02T09:03:25.382Z,9.03
2017-10-02T09:05:53.655Z,7.03
2017-10-02T09:08:22.723Z,8.33
2017-10-02T09:10:51.018Z,8.60
2017-10-02T09:13:19.314Z,9.57
2017-10-02T09:15:47.652Z,10.17
2017-10-02T09:18:16.733Z,8.93
2017-10-02T09:20:45.186Z,7.53
2017-10-02T09:23:13.489Z,8.80
2017-10-02T09:25:41.782Z,7.73
2017-10-02T09:28:10.094Z,7.93
2017-10-02T09:30:38.410Z,8.23
2017-10-02T09:33:06.750Z,10.20
2017-10-02T09:35:35.075Z,8.17
2017-10-02T09:38:03.417Z,6.93
2017-10-02T09:40:31.746Z,7.30
2017-10-02T09:43:00.098Z,9.07
2017-10-02T09:45:28.415Z,6.80
2017-10-02T09:47:56.882Z,8.27
2017-10-02T09:50:25.968Z,7.30
2017-10-02T09:52:54.290Z,7.47
2017-10-02T09:55:22.637Z,6.60
2017-10-02T09:57:50.968Z,7.30
2017-10-02T10:00:19.318Z,6.43
2017-10-02T10:02:47.643Z,5.30
2017-10-02T10:05:16.000Z,5.57
2017-10-02T10:07:44.327Z,8.23
2017-10-02T10:10:13.453Z,7.60
2017-10-02T10:12:42.527Z,5.60
2017-10-02T10:15:11.606Z,5.40
2017-10-02T10:17:40.681Z,5.10
2017-10-02T10:20:09.187Z,6.13
2017-10-02T10:22:38.250Z,6.10
2017-10-02T10:25:06.559Z,5.73
2017-10-02T10:27:35.650Z,6.80
2017-10-02T10:30:04.734Z,9.70
2017-10-02T10:32:33.074Z,4.47
2017-10-02T10:35:01.365Z,6.70
2017-10-02T10:37:29.755Z,6.07
2017-10-02T10:39:58.044Z,6.80
2017-10-02T10:42:26.543Z,7.30
2017-10-02T10:44:54.836Z,5.27
2017-10-02T10:47:23.878Z,5.47
2017-10-02T10:49:52.976Z,6.87
2017-10-02T10:52:21.295Z,5.40
2017-10-02T10:54:50.485Z,5.80
2017-10-02T10:57:18.759Z,4.93
2017-10-02T10:59:47.100Z,6.10
2017-10-02T11:02:15.403Z,6.13
2017-10-02T11:04:44.602Z,5.90
2017-10-02T11:07:13.663Z,7.70
2017-10-02T11:09:41.977Z,5.70
2017-10-02T11:12:11.070Z,7.50
2017-10-02T11:14:39.452Z,5.70
2017-10-02T11:17:07.776Z,6.60
2017-10-02T11:19:36.097Z,7.47
2017-10-02T11:22:05.183Z,7.47
2017-10-02T11:24:33.483Z,8.73
2017-10-02T11:27:02.047Z,7.30
2017-10-02T11:29:31.123Z,6.27
2017-10-02T11:31:59.418Z,6.53
2017-10-02T11:34:28.526Z,6.40
2017-10-02T11:36:57.589Z,7.30
2017-10-02T11:39:25.910Z,6.50
2017-10-02T11:41:54.219Z,7.13
2017-10-02T11:44:22.538Z,7.73
2017-10-02T11:46:50.877Z,7.27
2017-10-02T11:49:19.257Z,6.13
2017-10-02T11:51:47.561Z,6.37
2017-10-02T11:54:15.875Z,7.30
2017-10-02T11:56:44.202Z,6.90
2017-10-02T11:59:12.918Z,5.30
2017-10-02T12:01:41.982Z,6.50
2017-10-02T12:04:10.280Z,5.33
2017-10-02T12:06:38.787Z,5.40
2017-10-02T12:09:07.838Z,6.73
2017-10-02T12:11:36.172Z,6.67
2017-10-02T12:14:04.480Z,5.30
2017-10-02T12:16:32.805Z,5.27
2017-10-02T12:19:01.858Z,4.50
2017-10-02T12:21:30.170Z,6.03
2017-10-02T12:23:58.471Z,5.43
2017-10-02T12:26:26.810Z,6.43
2017-10-02T12:28:55.868Z,5.40
2017-10-02T12:31:24.358Z,4.17
2017-10-02T12:33:53.518Z,5.67
2017-10-02T12:36:21.830Z,7.00
2017-10-02T12:38:50.907Z,4.30
2017-10-02T12:41:19.207Z,7.00
2017-10-02T12:43:47.518Z,5.00
2017-10-02T12:46:15.928Z,4.37
2017-10-02T12:48:44.259Z,4.27
2017-10-02T12:51:13.324Z,5.47
2017-10-02T12:53:41.639Z,5.70
2017-10-02T12:56:09.943Z,5.37
2017-10-02T12:58:38.238Z,4.50
2017-10-02T13:01:06.564Z,4.73
2017-10-02T13:03:35.625Z,3.90
2017-10-02T13:06:04.069Z,6.50
2017-10-02T13:08:32.364Z,6.83
2017-10-02T13:11:00.666Z,7.10
2017-10-02T13:13:28.974Z,7.47
2017-10-02T13:15:58.030Z,5.23
2017-10-02T13:18:26.361Z,6.23
2017-10-02T13:20:54.661Z,5.70
2017-10-02T13:23:22.995Z,7.03
2017-10-02T13:25:51.627Z,4.87
2017-10-02T13:28:19.953Z,5.60
2017-10-02T13:30:48.278Z,6.63
2017-10-02T13:33:16.719Z,4.80
2017-10-02T13:35:45.016Z,4.33
2017-10-02T13:38:13.314Z,5.27
2017-10-02T13:40:41.632Z,7.17
2017-10-02T13:43:10.018Z,5.10
2017-10-02T13:45:38.322Z,4.23
2017-10-02T13:48:10.025Z,4.17
2017-10-02T13:50:38.510Z,5.70
2017-10-02T13:53:07.947Z,6.37
2017-10-02T13:55:36.260Z,4.57
2017-10-02T13:58:04.570Z,6.27
2017-10-02T14:00:33.779Z,6.10
2017-10-02T14:03:02.839Z,7.50
2017-10-02T14:05:31.142Z,7.80
2017-10-02T14:08:00.233Z,6.57
2017-10-02T14:10:29.314Z,5.47
2017-10-02T14:12:57.629Z,6.80
2017-10-02T14:15:26.686Z,6.93
2017-10-02T14:17:54.995Z,5.80
2017-10-02T14:20:23.327Z,10.43
2017-10-02T14:22:51.747Z,6.17
2017-10-02T14:25:20.018Z,5.23
2017-10-02T14:27:49.112Z,7.70
2017-10-02T14:30:18.179Z,15.70
2017-10-02T14:32:46.622Z,12.23
2017-10-02T14:35:14.939Z,9.80
2017-10-02T14:37:43.241Z,16.63
2017-10-02T14:40:12.336Z,15.40
2017-10-02T14:42:41.406Z,6.17
2017-10-02T14:45:09.727Z,5.53
2017-10-02T14:47:38.019Z,5.03
2017-10-02T14:50:06.339Z,4.70
2017-10-02T14:52:34.639Z,4.60
2017-10-02T14:55:03.717Z,5.03
2017-10-02T14:57:32.008Z,4.80
2017-10-02T15:00:01.108Z,5.63
2017-10-02T15:02:29.428Z,6.33
2017-10-02T15:04:57.780Z,5.33
2017-10-02T15:07:26.086Z,4.70
2017-10-02T15:09:54.400Z,5.23
2017-10-02T15:12:22.690Z,5.50
2017-10-02T15:14:51.866Z,6.13
2017-10-02T15:17:20.147Z,5.00
2017-10-02T15:19:48.431Z,6.10
2017-10-02T15:22:17.516Z,6.30
2017-10-02T15:24:45.830Z,6.80
2017-10-02T15:27:14.265Z,6.50
2017-10-02T15:29:43.328Z,5.80
2017-10-02T15:32:11.651Z,5.00
2017-10-02T15:34:40.527Z,4.53
2017-10-02T15:37:09.620Z,5.70
2017-10-02T15:39:38.695Z,7.63
2017-10-02T15:42:07.198Z,5.43
2017-10-02T15:44:35.493Z,5.40
2017-10-02T15:47:04.555Z,6.20
2017-10-02T15:49:33.657Z,5.93
2017-10-02T15:52:01.956Z,6.43
2017-10-02T15:54:31.138Z,6.60
2017-10-02T15:56:59.515Z,5.40
2017-10-02T15:59:27.826Z,6.73
2017-10-02T16:01:56.174Z,6.40
2017-10-02T16:04:25.262Z,5.70
2017-10-02T16:06:54.361Z,5.90
2017-10-02T16:09:23.459Z,6.80
2017-10-02T16:11:51.737Z,7.60
2017-10-02T16:14:20.356Z,7.27
2017-10-02T16:16:48.647Z,6.20
2017-10-02T16:19:16.960Z,6.80
2017-10-02T16:21:45.251Z,6.07
2017-10-02T16:24:14.547Z,6.37
2017-10-02T16:26:42.928Z,6.67
2017-10-02T16:29:11.298Z,5.60
2017-10-02T16:31:39.623Z,7.50
2017-10-02T16:34:07.930Z,6.90
2017-10-02T16:36:36.240Z,8.27
2017-10-02T16:39:05.302Z,6.33
2017-10-02T16:41:34.414Z,9.37
2017-10-02T16:44:02.719Z,10.00
2017-10-02T16:46:31.059Z,9.13
2017-10-02T16:49:00.150Z,8.87
2017-10-02T16:51:29.258Z,8.40
2017-10-02T16:53:57.557Z,8.53
2017-10-02T16:56:26.639Z,7.83
2017-10-02T16:58:55.703Z,6.83
2017-10-02T17:01:24.063Z,10.50
2017-10-02T17:03:52.372Z,8.90
2017-10-02T17:06:20.859Z,9.10
2017-10-02T17:08:49.159Z,7.53
2017-10-02T17:11:17.482Z,7.20
2017-10-02T17:13:45.794Z,6.30
2017-10-02T17:16:14.857Z,6.90
2017-10-02T17:18:43.166Z,7.10
2017-10-02T17:21:11.527Z,5.93
2017-10-02T17:23:39.826Z,6.10
2017-10-02T17:26:09.085Z,6.63
2017-10-02T17:28:37.419Z,7.10
2017-10-02T17:31:06.497Z,7.27
2017-10-02T17:33:35.581Z,6.70
2017-10-02T17:36:04.910Z,6.60
2017-10-02T17:38:33.234Z,7.43
2017-10-02T17:41:01.533Z,8.67
2017-10-02T17:43:30.652Z,10.20
2017-10-02T17:45:58.962Z,8.97
2017-10-02T17:48:27.393Z,8.13
2017-10-02T17:50:56.459Z,9.03
2017-10-02T17:53:25.548Z,9.67
2017-10-02T17:55:53.872Z,9.27
2017-10-02T17:58:22.928Z,9.50
2017-10-02T18:00:52.054Z,9.07
2017-10-02T18:03:20.360Z,9.10
2017-10-02T18:05:48.674Z,8.80
2017-10-02T18:08:16.964Z,10.03
2017-10-02T18:10:46.074Z,9.40
2017-10-02T18:13:14.385Z,7.77
2017-10-02T18:15:42.729Z,7.73
2017-10-02T18:18:11.030Z,7.80
2017-10-02T18:20:39.357Z,7.03
2017-10-02T18:23:07.656Z,8.27
2017-10-02T18:25:36.013Z,7.40
2017-10-02T18:28:04.307Z,9.43
2017-10-02T18:30:32.768Z,8.20
2017-10-02T18:33:01.079Z,9.07
2017-10-02T18:35:29.402Z,7.87
2017-10-02T18:37:57.702Z,7.50
2017-10-02T18:40:26.028Z,7.77
2017-10-02T18:42:54.357Z,8.43
2017-10-02T18:45:22.952Z,7.03
2017-10-02T18:47:51.287Z,9.10
2017-10-02T18:50:19.611Z,9.23
2017-10-02T18:52:47.934Z,9.37
2017-10-02T18:55:16.257Z,8.07
2017-10-02T18:57:44.569Z,8.47
2017-10-02T19:00:12.865Z,8.10
2017-10-02T19:02:41.989Z,8.67
2017-10-02T19:05:10.297Z,9.67
2017-10-02T19:07:38.636Z,9.60
2017-10-02T19:10:06.943Z,7.80
2017-10-02T19:12:36.039Z,8.23
2017-10-02T19:15:04.366Z,9.60
2017-10-02T19:17:32.852Z,8.67
2017-10-02T19:20:01.146Z,6.87
2017-10-02T19:22:29.480Z,9.23
2017-10-02T19:24:57.792Z,9.40
2017-10-02T19:27:26.131Z,10.13
2017-10-02T19:29:54.448Z,12.50
2017-10-02T19:32:23.134Z,9.77
2017-10-02T19:34:51.434Z,9.20
2017-10-02T19:37:20.509Z,7.40
2017-10-02T19:39:48.840Z,9.07
2017-10-02T19:42:17.135Z,7.40
2017-10-02T19:44:45.461Z,7.97
2017-10-02T19:47:14.537Z,9.37
2017-10-02T19:49:43.629Z,8.67
2017-10-02T19:52:12.723Z,7.53
2017-10-02T19:54:41.046Z,8.50
2017-10-02T19:57:09.338Z,8.20
2017-10-02T19:59:37.658Z,8.97
2017-10-02T20:02:06.739Z,8.10
2017-10-02T20:04:35.071Z,7.57
2017-10-02T20:07:03.398Z,9.30
2017-10-02T20:09:31.751Z,8.77
2017-10-02T20:12:00.096Z,8.07
2017-10-02T20:14:28.444Z,9.80
2017-10-02T20:16:56.790Z,8.43
2017-10-02T20:19:25.140Z,9.00
2017-10-02T20:21:53.479Z,11.07
2017-10-02T20:24:21.822Z,10.13
2017-10-02T20:26:50.153Z,11.10
2017-10-02T20:29:18.477Z,9.27
2017-10-02T20:31:46.802Z,10.50
2017-10-02T20:34:15.124Z,10.10
2017-10-02T20:36:43.447Z,9.70
2017-10-02T20:39:12.534Z,9.10
2017-10-02T20:41:41.941Z,10.17
2017-10-02T20:44:11.039Z,9.17
2017-10-02T20:46:40.132Z,9.17
2017-10-02T20:49:09.223Z,9.60
2017-10-02T20:51:38.290Z,9.33
2017-10-02T20:54:06.627Z,9.63
2017-10-02T20:56:34.942Z,8.20
2017-10-02T20:59:03.273Z,8.90
2017-10-02T21:01:31.600Z,9.37
2017-10-02T21:03:59.897Z,8.37
2017-10-02T21:06:28.983Z,8.60
2017-10-02T21:08:58.097Z,10.53
2017-10-02T21:11:26.412Z,10.47
2017-10-02T21:13:54.873Z,9.53
2017-10-02T21:16:23.175Z,9.57
2017-10-02T21:18:51.475Z,9.03
2017-10-02T21:21:19.805Z,10.50
2017-10-02T21:23:48.098Z,9.90
2017-10-02T21:26:16.438Z,9.77
2017-10-02T21:28:45.504Z,9.10
2017-10-02T21:31:13.917Z,10.90
2017-10-02T21:33:42.222Z,11.00
2017-10-02T21:36:10.556Z,11.47
2017-10-02T21:38:39.630Z,9.33
2017-10-02T21:41:07.977Z,9.13
2017-10-02T21:43:36.291Z,12.47
2017-10-02T21:46:05.395Z,8.77
2017-10-02T21:48:34.478Z,8.90
2017-10-02T21:51:02.971Z,8.70
2017-10-02T21:53:32.039Z,9.37
2017-10-02T21:56:00.349Z,9.07
2017-10-02T21:58:28.691Z,9.53
2017-10-02T22:00:57.006Z,9.10
2017-10-02T22:03:25.342Z,10.57
2017-10-02T22:05:53.655Z,8.37
2017-10-02T22:08:22.747Z,9.47
2017-10-02T22:10:51.810Z,10.40
2017-10-02T22:13:20.931Z,10.00
2017-10-02T22:15:50.002Z,8.20
2017-10-02T22:18:18.338Z,9.00
2017-10-02T22:20:46.642Z,9.17
2017-10-02T22:23:15.739Z,6.50
2017-10-02T22:25:44.852Z,7.10
2017-10-02T22:28:13.186Z,7.87
2017-10-02T22:30:41.484Z,7.90
2017-10-02T22:33:10.587Z,8.37
2017-10-02T22:35:38.901Z,8.33
2017-10-02T22:38:07.991Z,8.20
2017-10-02T22:40:37.095Z,7.27
2017-10-02T22:43:06.287Z,7.03
2017-10-02T22:45:34.610Z,8.77
2017-10-02T22:48:02.934Z,9.30
2017-10-02T22:50:31.263Z,7.57
2017-10-02T22:52:59.578Z,7.33
2017-10-02T22:55:28.682Z,8.73
2017-10-02T22:57:57.751Z,9.20
2017-10-02T23:00:26.864Z,6.17
2017-10-02T23:02:55.952Z,7.07
2017-10-02T23:05:24.284Z,7.20
2017-10-02T23:07:52.582Z,8.87
2017-10-02T23:10:20.910Z,7.43
2017-10-02T23:12:49.222Z,7.10
2017-10-02T23:15:17.563Z,8.10
2017-10-02T23:17:45.871Z,8.40
2017-10-02T23:20:14.218Z,8.10
2017-10-02T23:22:42.547Z,8.63
2017-10-02T23:25:11.669Z,7.20
2017-10-02T23:27:40.743Z,9.47
2017-10-02T23:30:09.859Z,10.70
2017-10-02T23:32:38.971Z,8.40
2017-10-02T23:35:08.047Z,8.30
2017-10-02T23:37:37.127Z,8.00
2017-10-02T23:40:05.482Z,9.47
2017-10-02T23:42:33.797Z,10.10
2017-10-02T23:45:02.101Z,8.37
2017-10-02T23:47:30.422Z,8.40
2017-10-02T23:49:58.706Z,9.40
2017-10-02T23:52:27.049Z,7.30
2017-10-02T23:54:55.351Z,8.97
2017-10-02T23:57:23.703Z,10.07
2017-10-02T23:59:51.997Z,7.30
